createdAt,value
2018-06-21T00:00:22.968Z,79.49
2018-06-21T00:01:22.973Z,79.39
2018-06-21T00:02:22.981Z,80.02
2018-06-21T00:03:22.985Z,80.41
2018-06-21T00:04:22.991Z,79.93
2018-06-21T00:05:22.996Z,80.41
2018-06-21T00:06:23.002Z,80.31
2018-06-21T00:07:23.009Z,80.51
2018-06-21T00:08:23.014Z,80.31
2018-06-21T00:09:23.012Z,80.41
2018-06-21T00:10:23.027Z,80.69
2018-06-21T00:11:23.029Z,80.89
2018-06-21T00:12:23.038Z,80.79
2018-06-21T00:13:23.039Z,80.22
2018-06-21T00:14:23.048Z,79.93
2018-06-21T00:15:23.053Z,80.69
2018-06-21T00:16:23.058Z,80.79
2018-06-21T00:17:23.059Z,80.31
2018-06-21T00:18:23.111Z,80.79
2018-06-21T00:19:23.071Z,80.51
2018-06-21T00:20:23.079Z,80.51
2018-06-21T00:21:23.085Z,80.22
2018-06-21T00:22:23.092Z,80.51
2018-06-21T00:23:23.100Z,80.69
2018-06-21T00:24:23.104Z,80.60
2018-06-21T00:25:23.112Z,80.60
2018-06-21T00:26:23.116Z,80.89
2018-06-21T00:27:23.120Z,81.52
2018-06-21T00:28:23.126Z,81.04
2018-06-21T00:29:23.183Z,81.04
2018-06-21T00:30:23.138Z,81.14
2018-06-21T00:31:23.142Z,81.14
2018-06-21T00:32:23.148Z,81.24
2018-06-21T00:33:23.153Z,81.33
2018-06-21T00:34:23.158Z,81.81
2018-06-21T00:35:23.164Z,82.01
2018-06-21T00:36:23.173Z,82.10
2018-06-21T00:37:23.178Z,82.20
2018-06-21T00:38:23.180Z,82.20
2018-06-21T00:39:23.186Z,82.06
2018-06-21T00:40:23.192Z,81.96
2018-06-21T00:41:23.190Z,82.59
2018-06-21T00:42:23.202Z,82.87
2018-06-21T00:43:23.209Z,82.68
2018-06-21T00:44:23.213Z,82.59
2018-06-21T00:45:23.216Z,83.03
2018-06-21T00:46:23.225Z,82.93
2018-06-21T00:47:23.229Z,83.03
2018-06-21T00:48:23.234Z,83.03
2018-06-21T00:49:23.246Z,83.03
2018-06-21T00:50:23.245Z,82.83
2018-06-21T00:51:23.249Z,83.31
2018-06-21T00:52:23.253Z,83.22
2018-06-21T00:53:23.261Z,83.03
2018-06-21T00:54:23.269Z,82.93
2018-06-21T00:55:23.271Z,82.83
2018-06-21T00:56:23.276Z,83.03
2018-06-21T00:57:23.280Z,83.22
2018-06-21T00:58:23.287Z,83.22
2018-06-21T00:59:23.290Z,83.03
2018-06-21T01:00:23.296Z,82.64
2018-06-21T01:01:23.304Z,82.64
2018-06-21T01:02:23.307Z,83.03
2018-06-21T01:03:23.312Z,83.03
2018-06-21T01:04:23.320Z,82.83
2018-06-21T01:05:23.317Z,83.03
2018-06-21T01:06:23.327Z,83.70
2018-06-21T01:07:23.330Z,83.89
2018-06-21T01:08:23.336Z,83.70
2018-06-21T01:09:23.337Z,83.80
2018-06-21T01:10:23.347Z,83.89
2018-06-21T01:11:23.351Z,83.70
2018-06-21T01:12:23.356Z,83.95
2018-06-21T01:13:23.364Z,83.66
2018-06-21T01:14:23.366Z,83.75
2018-06-21T01:15:23.374Z,84.33
2018-06-21T01:16:23.377Z,83.75
2018-06-21T01:17:23.384Z,83.75
2018-06-21T01:18:23.390Z,83.66
2018-06-21T01:19:23.393Z,83.56
2018-06-21T01:20:23.400Z,84.33
2018-06-21T01:21:23.404Z,84.05
2018-06-21T01:22:23.408Z,84.33
2018-06-21T01:23:23.415Z,84.14
2018-06-21T01:24:23.417Z,84.14
2018-06-21T01:25:23.426Z,84.43
2018-06-21T01:26:23.428Z,84.23
2018-06-21T01:27:23.435Z,84.05
2018-06-21T01:28:23.437Z,84.23
2018-06-21T01:29:23.441Z,83.85
2018-06-21T01:30:23.455Z,84.53
2018-06-21T01:31:23.450Z,84.43
2018-06-21T01:32:23.460Z,84.05
2018-06-21T01:33:23.461Z,84.05
2018-06-21T01:34:23.468Z,83.95
2018-06-21T01:35:23.471Z,84.23
2018-06-21T01:36:23.475Z,84.43
2018-06-21T01:37:23.480Z,84.43
2018-06-21T01:38:23.491Z,84.43
2018-06-21T01:39:23.493Z,84.53
2018-06-21T01:40:23.495Z,84.53
2018-06-21T01:41:23.501Z,84.05
2018-06-21T01:42:23.507Z,84.43
2018-06-21T01:43:23.511Z,84.14
2018-06-21T01:44:23.509Z,83.95
2018-06-21T01:45:23.520Z,83.75
2018-06-21T01:46:23.522Z,84.53
2018-06-21T01:47:23.531Z,84.81
2018-06-21T01:48:23.533Z,85.35
2018-06-21T01:49:23.544Z,85.35
2018-06-21T01:50:23.538Z,85.06
2018-06-21T01:51:23.551Z,85.35
2018-06-21T01:52:23.551Z,85.16
2018-06-21T01:53:23.556Z,85.16
2018-06-21T01:54:23.564Z,85.74
2018-06-21T01:55:23.569Z,85.74
2018-06-21T01:56:23.571Z,85.64
2018-06-21T01:57:23.577Z,86.02
2018-06-21T01:58:23.584Z,85.54
2018-06-21T01:59:23.590Z,85.54
2018-06-21T02:00:23.591Z,85.64
2018-06-21T02:01:23.593Z,85.83
2018-06-21T02:02:23.601Z,85.83
2018-06-21T02:03:23.601Z,85.64
2018-06-21T02:04:23.609Z,85.74
2018-06-21T02:05:23.615Z,86.02
2018-06-21T02:06:23.619Z,85.64
2018-06-21T02:07:23.625Z,85.93
2018-06-21T02:08:23.630Z,85.74
2018-06-21T02:09:23.638Z,86.02
2018-06-21T02:10:23.641Z,85.93
2018-06-21T02:11:23.645Z,86.02
2018-06-21T02:12:23.648Z,86.12
2018-06-21T02:13:23.651Z,86.60
2018-06-21T02:14:23.653Z,86.22
2018-06-21T02:15:23.662Z,86.02
2018-06-21T02:16:23.665Z,86.12
2018-06-21T02:17:23.670Z,86.02
2018-06-21T02:18:23.676Z,86.02
2018-06-21T02:19:23.677Z,85.78
2018-06-21T02:20:23.683Z,86.27
2018-06-21T02:21:23.687Z,86.02
2018-06-21T02:22:23.696Z,86.27
2018-06-21T02:23:23.697Z,86.46
2018-06-21T02:24:23.694Z,86.65
2018-06-21T02:25:23.704Z,86.27
2018-06-21T02:26:23.710Z,87.04
2018-06-21T02:27:23.717Z,86.94
2018-06-21T02:28:23.715Z,86.85
2018-06-21T02:29:23.723Z,87.23
2018-06-21T02:30:23.730Z,87.13
2018-06-21T02:31:23.732Z,87.13
2018-06-21T02:32:23.739Z,86.65
2018-06-21T02:33:23.748Z,87.04
2018-06-21T02:34:23.781Z,87.52
2018-06-21T02:35:23.752Z,87.23
2018-06-21T02:36:23.751Z,87.33
2018-06-21T02:37:23.758Z,87.52
2018-06-21T02:38:23.764Z,87.71
2018-06-21T02:39:23.770Z,87.23
2018-06-21T02:40:23.775Z,87.33
2018-06-21T02:41:23.775Z,87.90
2018-06-21T02:42:23.780Z,87.90
2018-06-21T02:43:23.788Z,87.62
2018-06-21T02:44:23.789Z,87.42
2018-06-21T02:45:23.793Z,87.52
2018-06-21T02:46:23.805Z,87.52
2018-06-21T02:47:23.802Z,87.62
2018-06-21T02:48:23.807Z,87.23
2018-06-21T02:49:23.819Z,87.23
2018-06-21T02:50:23.817Z,87.23
2018-06-21T02:51:23.819Z,87.23
2018-06-21T02:52:23.823Z,87.52
2018-06-21T02:53:23.827Z,87.52
2018-06-21T02:54:23.831Z,87.09
2018-06-21T02:55:23.828Z,87.76
2018-06-21T02:56:23.834Z,87.52
2018-06-21T02:57:23.844Z,87.52
2018-06-21T02:58:23.846Z,87.13
2018-06-21T02:59:23.858Z,87.09
2018-06-21T03:00:23.855Z,87.33
2018-06-21T03:01:23.855Z,87.13
2018-06-21T03:02:23.864Z,87.71
2018-06-21T03:03:23.871Z,86.94
2018-06-21T03:04:23.877Z,87.71
2018-06-21T03:05:23.879Z,87.48
2018-06-21T03:06:23.884Z,87.23
2018-06-21T03:07:23.887Z,87.33
2018-06-21T03:08:23.893Z,87.19
2018-06-21T03:09:23.896Z,87.19
2018-06-21T03:10:23.895Z,87.42
2018-06-21T03:11:23.906Z,86.71
2018-06-21T03:12:23.906Z,86.90
2018-06-21T03:13:23.912Z,87.04
2018-06-21T03:14:23.917Z,86.94
2018-06-21T03:15:23.920Z,86.90
2018-06-21T03:16:23.923Z,87.38
2018-06-21T03:17:23.928Z,87.33
2018-06-21T03:18:23.934Z,87.09
2018-06-21T03:19:23.936Z,87.29
2018-06-21T03:20:23.938Z,87.42
2018-06-21T03:21:23.945Z,86.85
2018-06-21T03:22:23.949Z,86.27
2018-06-21T03:23:23.951Z,86.46
2018-06-21T03:24:23.961Z,86.75
2018-06-21T03:25:23.957Z,86.27
2018-06-21T03:26:23.961Z,86.27
2018-06-21T03:27:23.966Z,86.27
2018-06-21T03:28:23.972Z,86.46
2018-06-21T03:29:23.981Z,86.27
2018-06-21T03:30:23.988Z,86.65
2018-06-21T03:31:23.990Z,86.46
2018-06-21T03:32:23.986Z,87.33
2018-06-21T03:33:24.002Z,87.19
2018-06-21T03:34:24.005Z,86.94
2018-06-21T03:35:24.007Z,86.94
2018-06-21T03:36:24.007Z,87.13
2018-06-21T03:37:24.009Z,86.65
2018-06-21T03:38:24.021Z,86.75
2018-06-21T03:39:24.020Z,86.46
2018-06-21T03:40:24.025Z,86.75
2018-06-21T03:41:24.029Z,86.27
2018-06-21T03:42:24.032Z,86.27
2018-06-21T03:43:24.039Z,85.98
2018-06-21T03:44:24.041Z,85.98
2018-06-21T03:45:24.049Z,85.98
2018-06-21T03:46:24.052Z,86.18
2018-06-21T03:47:24.063Z,85.98
2018-06-21T03:48:24.056Z,85.40
2018-06-21T03:49:24.062Z,85.98
2018-06-21T03:50:24.068Z,85.11
2018-06-21T03:51:24.071Z,85.02
2018-06-21T03:52:24.075Z,85.31
2018-06-21T03:53:24.082Z,85.31
2018-06-21T03:54:24.084Z,85.11
2018-06-21T03:55:24.093Z,85.11
2018-06-21T03:56:24.092Z,85.31
2018-06-21T03:57:24.097Z,85.40
2018-06-21T03:58:24.095Z,85.21
2018-06-21T03:59:24.104Z,85.21
2018-06-21T04:00:24.105Z,85.31
2018-06-21T04:01:24.114Z,85.11
2018-06-21T04:02:24.119Z,85.21
2018-06-21T04:03:24.123Z,85.21
2018-06-21T04:04:24.121Z,85.11
2018-06-21T04:05:24.134Z,85.11
2018-06-21T04:06:24.135Z,85.31
2018-06-21T04:07:24.134Z,85.40
2018-06-21T04:08:24.194Z,85.11
2018-06-21T04:09:24.144Z,85.02
2018-06-21T04:10:24.152Z,85.60
2018-06-21T04:11:24.160Z,85.11
2018-06-21T04:12:24.160Z,85.11
2018-06-21T04:13:24.166Z,84.83
2018-06-21T04:14:24.169Z,84.83
2018-06-21T04:15:24.173Z,84.54
2018-06-21T04:16:24.177Z,84.87
2018-06-21T04:17:24.221Z,84.67
2018-06-21T04:18:24.189Z,84.58
2018-06-21T04:19:24.193Z,84.67
2018-06-21T04:20:24.197Z,84.58
2018-06-21T04:21:24.202Z,84.00
2018-06-21T04:22:24.204Z,84.39
2018-06-21T04:23:24.209Z,84.00
2018-06-21T04:24:24.214Z,84.19
2018-06-21T04:25:24.216Z,84.00
2018-06-21T04:26:24.224Z,83.81
2018-06-21T04:27:24.225Z,84.19
2018-06-21T04:28:24.230Z,84.10
2018-06-21T04:29:24.237Z,84.39
2018-06-21T04:30:24.240Z,83.81
2018-06-21T04:31:24.246Z,83.91
2018-06-21T04:32:24.282Z,84.00
2018-06-21T04:33:24.261Z,83.91
2018-06-21T04:34:24.258Z,83.72
2018-06-21T04:35:24.267Z,83.91
2018-06-21T04:36:24.265Z,83.85
2018-06-21T04:37:24.271Z,83.56
2018-06-21T04:38:24.278Z,83.56
2018-06-21T04:39:24.285Z,84.00
2018-06-21T04:40:24.286Z,83.85
2018-06-21T04:41:24.288Z,83.75
2018-06-21T04:42:24.296Z,83.28
2018-06-21T04:43:24.299Z,83.66
2018-06-21T04:44:24.298Z,82.79
2018-06-21T04:45:24.303Z,82.79
2018-06-21T04:46:24.312Z,82.79
2018-06-21T04:47:24.318Z,82.98
2018-06-21T04:48:24.322Z,82.89
2018-06-21T04:49:24.332Z,83.08
2018-06-21T04:50:24.337Z,82.93
2018-06-21T04:51:24.336Z,82.50
2018-06-21T04:52:24.341Z,82.60
2018-06-21T04:53:24.345Z,82.64
2018-06-21T04:54:24.349Z,82.50
2018-06-21T04:55:24.356Z,82.50
2018-06-21T04:56:24.360Z,82.74
2018-06-21T04:57:24.365Z,82.45
2018-06-21T04:58:24.370Z,81.96
2018-06-21T04:59:24.376Z,82.16
2018-06-21T05:00:24.386Z,82.26
2018-06-21T05:01:24.385Z,82.16
2018-06-21T05:02:24.393Z,81.87
2018-06-21T05:03:24.403Z,81.39
2018-06-21T05:04:24.399Z,81.68
2018-06-21T05:05:24.400Z,81.77
2018-06-21T05:06:24.474Z,81.77
2018-06-21T05:07:24.416Z,81.68
2018-06-21T05:08:24.420Z,81.29
2018-06-21T05:09:24.430Z,81.29
2018-06-21T05:10:24.431Z,81.43
2018-06-21T05:11:24.435Z,80.81
2018-06-21T05:12:24.440Z,80.94
2018-06-21T05:13:24.448Z,80.94
2018-06-21T05:14:24.452Z,81.04
2018-06-21T05:15:24.456Z,81.04
2018-06-21T05:16:24.456Z,80.76
2018-06-21T05:17:24.468Z,80.85
2018-06-21T05:18:24.470Z,80.46
2018-06-21T05:19:24.478Z,80.66
2018-06-21T05:20:24.485Z,80.76
2018-06-21T05:21:24.497Z,80.37
2018-06-21T05:22:24.499Z,80.08
2018-06-21T05:23:24.500Z,79.93
2018-06-21T05:24:24.505Z,80.02
2018-06-21T05:25:24.509Z,79.64
2018-06-21T05:26:24.514Z,79.74
2018-06-21T05:27:24.520Z,79.93
2018-06-21T05:28:24.526Z,79.83
2018-06-21T05:29:24.528Z,79.54
2018-06-21T05:30:24.543Z,79.54
2018-06-21T05:31:24.540Z,79.83
2018-06-21T05:32:24.543Z,79.93
2018-06-21T05:33:24.553Z,79.54
2018-06-21T05:34:24.560Z,79.35
2018-06-21T05:35:24.565Z,79.54
2018-06-21T05:36:24.571Z,79.29
2018-06-21T05:37:24.634Z,79.49
2018-06-21T05:38:24.586Z,79.10
2018-06-21T05:39:24.588Z,79.00
2018-06-21T05:40:24.594Z,78.33
2018-06-21T05:41:24.599Z,79.19
2018-06-21T05:42:24.606Z,78.52
2018-06-21T05:43:24.613Z,78.91
2018-06-21T05:44:24.644Z,79.04
2018-06-21T05:45:24.623Z,78.66
2018-06-21T05:46:24.631Z,78.56
2018-06-21T05:47:24.635Z,78.27
2018-06-21T05:48:24.640Z,77.98
2018-06-21T05:49:24.647Z,77.98
2018-06-21T05:50:24.653Z,77.88
2018-06-21T05:51:24.658Z,78.17
2018-06-21T05:52:24.665Z,77.69
2018-06-21T05:53:24.673Z,77.88
2018-06-21T05:54:24.677Z,77.40
2018-06-21T05:55:24.683Z,77.30
2018-06-21T05:56:24.683Z,77.44
2018-06-21T05:57:24.698Z,76.95
2018-06-21T05:58:24.695Z,76.86
2018-06-21T05:59:24.704Z,76.76
2018-06-21T06:00:24.714Z,76.95
2018-06-21T06:01:24.719Z,76.57
2018-06-21T06:02:24.726Z,75.79
2018-06-21T06:03:24.735Z,76.22
2018-06-21T06:04:24.741Z,76.22
2018-06-21T06:05:24.745Z,75.54
2018-06-21T06:06:24.754Z,75.64
2018-06-21T06:07:24.760Z,74.58
2018-06-21T06:08:24.817Z,74.71
2018-06-21T06:09:24.773Z,74.71
2018-06-21T06:10:24.779Z,74.04
2018-06-21T06:11:24.802Z,74.23
2018-06-21T06:12:24.792Z,73.55
2018-06-21T06:13:24.797Z,72.88
2018-06-21T06:14:24.801Z,73.16
2018-06-21T06:15:24.814Z,73.26
2018-06-21T06:16:24.818Z,73.10
2018-06-21T06:17:24.828Z,73.20
2018-06-21T06:18:24.835Z,72.52
2018-06-21T06:19:24.841Z,72.52
2018-06-21T06:20:24.841Z,73.01
2018-06-21T06:21:24.851Z,72.91
2018-06-21T06:22:24.855Z,72.72
2018-06-21T06:23:24.870Z,72.66
2018-06-21T06:24:24.872Z,71.98
2018-06-21T06:25:24.874Z,71.01
2018-06-21T06:26:24.883Z,70.62
2018-06-21T06:27:24.891Z,70.72
2018-06-21T06:28:24.902Z,70.62
2018-06-21T06:29:24.910Z,70.24
2018-06-21T06:30:24.916Z,70.04
2018-06-21T06:31:24.926Z,69.37
2018-06-21T06:32:24.936Z,68.11
2018-06-21T06:33:24.938Z,67.56
2018-06-21T06:34:24.946Z,66.88
2018-06-21T06:35:24.954Z,66.69
2018-06-21T06:36:24.961Z,65.56
2018-06-21T06:37:24.968Z,64.89
2018-06-21T06:38:24.980Z,64.40
2018-06-21T06:39:24.984Z,64.30
2018-06-21T06:40:25.012Z,64.59
2018-06-21T06:41:25.000Z,63.82
2018-06-21T06:42:25.015Z,63.72
2018-06-21T06:43:25.019Z,63.79
2018-06-21T06:44:25.033Z,64.20
2018-06-21T06:45:25.032Z,63.69
2018-06-21T06:46:25.040Z,63.98
2018-06-21T06:47:25.052Z,63.72
2018-06-21T06:48:25.053Z,64.20
2018-06-21T06:49:25.061Z,64.30
2018-06-21T06:50:25.071Z,63.43
2018-06-21T06:51:25.076Z,63.04
2018-06-21T06:52:25.086Z,63.34
2018-06-21T06:53:25.094Z,62.75
2018-06-21T06:54:25.158Z,63.24
2018-06-21T06:55:25.113Z,62.20
2018-06-21T06:56:25.117Z,60.94
2018-06-21T06:57:25.125Z,60.07
2018-06-21T06:58:25.133Z,60.10
2018-06-21T06:59:25.143Z,59.71
2018-06-21T07:00:25.149Z,59.45
2018-06-21T07:01:25.160Z,58.94
2018-06-21T07:02:25.170Z,59.61
2018-06-21T07:03:25.175Z,58.87
2018-06-21T07:04:25.181Z,58.09
2018-06-21T07:05:25.193Z,58.16
2018-06-21T07:06:25.200Z,58.19
2018-06-21T07:07:25.209Z,58.09
2018-06-21T07:08:25.264Z,58.48
2018-06-21T07:09:25.218Z,57.15
2018-06-21T07:10:25.233Z,56.67
2018-06-21T07:11:25.242Z,55.79
2018-06-21T07:12:25.250Z,56.21
2018-06-21T07:13:25.258Z,55.50
2018-06-21T07:14:25.309Z,54.75
2018-06-21T07:15:25.275Z,55.24
2018-06-21T07:16:25.284Z,54.66
2018-06-21T07:17:25.298Z,55.24
2018-06-21T07:18:25.306Z,55.24
2018-06-21T07:19:25.313Z,55.63
2018-06-21T07:20:25.345Z,55.14
2018-06-21T07:21:25.325Z,55.53
2018-06-21T07:22:25.339Z,55.53
2018-06-21T07:23:25.350Z,55.11
2018-06-21T07:24:25.357Z,56.01
2018-06-21T07:25:25.367Z,55.79
2018-06-21T07:26:25.378Z,55.50
2018-06-21T07:27:25.385Z,55.79
2018-06-21T07:28:25.402Z,56.09
2018-06-21T07:29:25.402Z,55.99
2018-06-21T07:30:25.413Z,55.31
2018-06-21T07:31:25.420Z,55.69
2018-06-21T07:32:25.425Z,55.50
2018-06-21T07:33:25.475Z,55.89
2018-06-21T07:34:25.448Z,56.09
2018-06-21T07:35:25.457Z,56.09
2018-06-21T07:36:25.465Z,56.37
2018-06-21T07:37:25.472Z,56.09
2018-06-21T07:38:25.484Z,56.18
2018-06-21T07:39:25.494Z,56.18
2018-06-21T07:40:25.539Z,56.18
2018-06-21T07:41:25.511Z,56.28
2018-06-21T07:42:25.518Z,56.57
2018-06-21T07:43:25.529Z,56.86
2018-06-21T07:44:25.538Z,56.76
2018-06-21T07:45:25.541Z,56.67
2018-06-21T07:46:25.559Z,57.15
2018-06-21T07:47:25.565Z,56.18
2018-06-21T07:48:25.573Z,56.86
2018-06-21T07:49:25.580Z,56.96
2018-06-21T07:50:25.590Z,57.15
2018-06-21T07:51:25.604Z,56.96
2018-06-21T07:52:25.603Z,56.76
2018-06-21T07:53:25.619Z,56.86
2018-06-21T07:54:25.624Z,56.76
2018-06-21T07:55:25.639Z,56.01
2018-06-21T07:56:25.641Z,55.73
2018-06-21T07:57:25.654Z,56.09
2018-06-21T07:58:25.661Z,56.67
2018-06-21T07:59:25.668Z,56.50
2018-06-21T08:00:25.680Z,56.89
2018-06-21T08:01:25.690Z,56.40
2018-06-21T08:02:25.698Z,56.60
2018-06-21T08:03:25.701Z,55.73
2018-06-21T08:04:25.716Z,55.92
2018-06-21T08:05:25.723Z,56.01
2018-06-21T08:06:25.734Z,56.21
2018-06-21T08:07:25.743Z,56.01
2018-06-21T08:08:25.749Z,56.21
2018-06-21T08:09:25.758Z,56.01
2018-06-21T08:10:25.778Z,56.04
2018-06-21T08:11:25.777Z,55.73
2018-06-21T08:12:25.788Z,56.21
2018-06-21T08:13:25.794Z,56.70
2018-06-21T08:14:25.804Z,55.92
2018-06-21T08:15:25.825Z,55.73
2018-06-21T08:16:25.821Z,56.11
2018-06-21T08:17:25.829Z,56.40
2018-06-21T08:18:25.838Z,56.40
2018-06-21T08:19:25.850Z,56.11
2018-06-21T08:20:26.651Z,55.92
2018-06-21T08:21:25.863Z,56.21
2018-06-21T08:22:25.875Z,57.01
2018-06-21T08:23:25.877Z,56.24
2018-06-21T08:24:25.897Z,56.92
2018-06-21T08:25:25.900Z,56.14
2018-06-21T08:26:25.912Z,55.75
2018-06-21T08:27:25.919Z,55.94
2018-06-21T08:28:25.927Z,55.68
2018-06-21T08:29:25.931Z,55.10
2018-06-21T08:30:25.950Z,55.58
2018-06-21T08:31:25.966Z,55.68
2018-06-21T08:32:25.962Z,54.61
2018-06-21T08:33:25.984Z,55.29
2018-06-21T08:34:25.982Z,54.39
2018-06-21T08:35:25.992Z,55.27
2018-06-21T08:36:25.999Z,54.88
2018-06-21T08:37:26.010Z,54.49
2018-06-21T08:38:26.019Z,54.39
2018-06-21T08:39:26.031Z,54.78
2018-06-21T08:40:26.037Z,54.29
2018-06-21T08:41:26.044Z,53.91
2018-06-21T08:42:26.053Z,54.58
2018-06-21T08:43:26.064Z,54.68
2018-06-21T08:44:26.071Z,54.58
2018-06-21T08:45:26.079Z,54.39
2018-06-21T08:46:26.088Z,54.58
2018-06-21T08:47:26.099Z,54.20
2018-06-21T08:48:26.109Z,54.00
2018-06-21T08:49:26.118Z,53.35
2018-06-21T08:50:26.129Z,53.06
2018-06-21T08:51:26.135Z,53.06
2018-06-21T08:52:26.161Z,54.13
2018-06-21T08:53:26.158Z,54.13
2018-06-21T08:54:26.164Z,54.22
2018-06-21T08:55:26.175Z,54.32
2018-06-21T08:56:26.183Z,53.93
2018-06-21T08:57:26.190Z,53.93
2018-06-21T08:58:26.257Z,54.03
2018-06-21T08:59:26.204Z,54.22
2018-06-21T09:00:26.220Z,53.96
2018-06-21T09:01:26.232Z,52.98
2018-06-21T09:02:26.240Z,53.28
2018-06-21T09:03:26.248Z,53.47
2018-06-21T09:04:26.255Z,52.98
2018-06-21T09:05:26.265Z,53.28
2018-06-21T09:06:26.275Z,53.47
2018-06-21T09:07:26.284Z,54.13
2018-06-21T09:08:26.294Z,53.93
2018-06-21T09:09:26.305Z,54.05
2018-06-21T09:10:26.312Z,53.64
2018-06-21T09:11:26.324Z,53.25
2018-06-21T09:12:26.330Z,53.83
2018-06-21T09:13:26.337Z,53.64
2018-06-21T09:14:26.349Z,53.16
2018-06-21T09:15:26.448Z,52.67
2018-06-21T09:16:26.365Z,53.16
2018-06-21T09:17:26.378Z,52.19
2018-06-21T09:18:26.386Z,52.96
2018-06-21T09:19:26.397Z,52.57
2018-06-21T09:20:26.405Z,52.37
2018-06-21T09:21:26.416Z,52.57
2018-06-21T09:22:26.424Z,52.19
2018-06-21T09:23:26.434Z,52.59
2018-06-21T09:24:26.447Z,52.21
2018-06-21T09:25:26.453Z,51.82
2018-06-21T09:26:26.463Z,52.04
2018-06-21T09:27:26.470Z,51.26
2018-06-21T09:28:26.479Z,50.68
2018-06-21T09:29:26.488Z,50.09
2018-06-21T09:30:26.494Z,50.51
2018-06-21T09:31:26.508Z,51.09
2018-06-21T09:32:26.517Z,50.70
2018-06-21T09:33:26.527Z,50.31
2018-06-21T09:34:26.532Z,50.02
2018-06-21T09:35:26.548Z,49.83
2018-06-21T09:36:26.559Z,49.99
2018-06-21T09:37:26.567Z,49.71
2018-06-21T09:38:26.578Z,50.19
2018-06-21T09:39:26.586Z,50.02
2018-06-21T09:40:26.600Z,49.73
2018-06-21T09:41:26.607Z,49.44
2018-06-21T09:42:26.617Z,49.12
2018-06-21T09:43:26.625Z,48.83
2018-06-21T09:44:26.635Z,49.22
2018-06-21T09:45:26.647Z,49.44
2018-06-21T09:46:33.877Z,49.34
2018-06-21T09:47:26.665Z,49.34
2018-06-21T09:48:26.677Z,49.44
2018-06-21T09:49:26.682Z,49.12
2018-06-21T09:50:26.695Z,48.25
2018-06-21T09:51:26.700Z,47.66
2018-06-21T09:52:26.749Z,47.59
2018-06-21T09:53:26.724Z,47.30
2018-06-21T09:54:26.733Z,47.20
2018-06-21T09:55:26.745Z,47.59
2018-06-21T09:56:26.753Z,47.98
2018-06-21T09:57:26.762Z,48.19
2018-06-21T09:58:26.775Z,47.61
2018-06-21T09:59:26.783Z,47.03
2018-06-21T10:00:26.792Z,46.71
2018-06-21T10:01:26.803Z,47.00
2018-06-21T10:02:26.814Z,46.91
2018-06-21T10:03:26.822Z,46.81
2018-06-21T10:04:26.838Z,46.91
2018-06-21T10:05:26.843Z,47.30
2018-06-21T10:06:26.853Z,47.52
2018-06-21T10:07:26.865Z,47.42
2018-06-21T10:08:26.867Z,46.73
2018-06-21T10:09:26.882Z,47.42
2018-06-21T10:10:26.890Z,47.03
2018-06-21T10:11:26.908Z,46.83
2018-06-21T10:12:26.910Z,47.22
2018-06-21T10:13:26.924Z,46.93
2018-06-21T10:14:26.934Z,47.22
2018-06-21T10:15:26.944Z,47.22
2018-06-21T10:16:26.954Z,47.22
2018-06-21T10:17:26.967Z,47.71
2018-06-21T10:18:26.979Z,47.32
2018-06-21T10:19:26.989Z,47.22
2018-06-21T10:20:27.069Z,47.32
2018-06-21T10:21:27.010Z,47.22
2018-06-21T10:22:27.024Z,48.00
2018-06-21T10:23:27.031Z,46.42
2018-06-21T10:24:27.038Z,46.54
2018-06-21T10:25:27.047Z,45.57
2018-06-21T10:26:27.061Z,45.37
2018-06-21T10:27:27.072Z,44.49
2018-06-21T10:28:27.082Z,44.69
2018-06-21T10:29:27.092Z,45.00
2018-06-21T10:30:27.107Z,44.62
2018-06-21T10:31:27.114Z,44.69
2018-06-21T10:32:27.123Z,44.90
2018-06-21T10:33:27.133Z,45.00
2018-06-21T10:34:27.145Z,44.13
2018-06-21T10:35:27.157Z,44.32
2018-06-21T10:36:27.163Z,43.91
2018-06-21T10:37:27.176Z,44.01
2018-06-21T10:38:27.185Z,43.74
2018-06-21T10:39:27.196Z,43.25
2018-06-21T10:40:27.206Z,43.15
2018-06-21T10:41:27.218Z,43.05
2018-06-21T10:42:27.268Z,42.47
2018-06-21T10:43:27.234Z,42.35
2018-06-21T10:44:27.255Z,42.45
2018-06-21T10:45:27.259Z,43.15
2018-06-21T10:46:27.268Z,43.25
2018-06-21T10:47:27.284Z,42.86
2018-06-21T10:48:27.292Z,43.18
2018-06-21T10:49:27.301Z,42.98
2018-06-21T10:50:27.314Z,42.40
2018-06-21T10:51:27.324Z,42.49
2018-06-21T10:52:27.332Z,42.59
2018-06-21T10:53:27.352Z,42.40
2018-06-21T10:54:27.359Z,42.80
2018-06-21T10:55:27.364Z,42.40
2018-06-21T10:56:27.376Z,43.00
2018-06-21T10:57:27.388Z,42.20
2018-06-21T10:58:27.398Z,42.40
2018-06-21T10:59:27.412Z,42.41
2018-06-21T11:00:27.419Z,42.41
2018-06-21T11:01:27.431Z,42.69
2018-06-21T11:02:27.442Z,42.79
2018-06-21T11:03:27.457Z,42.98
2018-06-21T11:04:27.464Z,43.25
2018-06-21T11:05:27.476Z,43.05
2018-06-21T11:06:27.486Z,43.15
2018-06-21T11:07:27.492Z,44.03
2018-06-21T11:08:27.511Z,44.23
2018-06-21T11:09:27.521Z,44.23
2018-06-21T11:10:27.530Z,43.76
2018-06-21T11:11:27.538Z,42.66
2018-06-21T11:12:27.548Z,42.96
2018-06-21T11:13:27.562Z,42.57
2018-06-21T11:14:27.573Z,43.25
2018-06-21T11:15:27.577Z,43.54
2018-06-21T11:16:27.596Z,43.18
2018-06-21T11:17:27.606Z,43.08
2018-06-21T11:18:27.620Z,43.18
2018-06-21T11:19:27.627Z,42.79
2018-06-21T11:20:27.640Z,43.08
2018-06-21T11:21:27.659Z,43.18
2018-06-21T11:22:27.661Z,43.08
2018-06-21T11:23:27.672Z,42.86
2018-06-21T11:24:27.686Z,43.25
2018-06-21T11:25:27.694Z,43.35
2018-06-21T11:26:27.707Z,43.23
2018-06-21T11:27:27.716Z,43.71
2018-06-21T11:28:27.725Z,43.04
2018-06-21T11:29:27.733Z,43.04
2018-06-21T11:30:27.747Z,43.13
2018-06-21T11:31:27.757Z,43.04
2018-06-21T11:32:27.777Z,42.45
2018-06-21T11:33:27.780Z,42.45
2018-06-21T11:34:27.791Z,42.45
2018-06-21T11:35:27.800Z,42.84
2018-06-21T11:36:27.808Z,42.74
2018-06-21T11:37:27.824Z,42.45
2018-06-21T11:38:27.836Z,42.33
2018-06-21T11:39:27.847Z,42.35
2018-06-21T11:40:27.857Z,42.43
2018-06-21T11:41:27.867Z,42.43
2018-06-21T11:42:27.878Z,42.33
2018-06-21T11:43:27.887Z,42.24
2018-06-21T11:44:27.900Z,40.88
2018-06-21T11:45:27.909Z,40.78
2018-06-21T11:46:27.920Z,40.56
2018-06-21T11:47:27.923Z,40.97
2018-06-21T11:48:27.935Z,40.97
2018-06-21T11:49:27.949Z,40.19
2018-06-21T11:50:27.962Z,40.80
2018-06-21T11:51:27.980Z,39.72
2018-06-21T11:52:27.980Z,39.43
2018-06-21T11:53:27.990Z,39.14
2018-06-21T11:54:28.005Z,38.95
2018-06-21T11:55:28.011Z,39.34
2018-06-21T11:56:28.024Z,39.34
2018-06-21T11:57:28.027Z,40.03
2018-06-21T11:58:28.051Z,39.45
2018-06-21T11:59:28.054Z,39.45
2018-06-21T12:00:28.060Z,39.84
2018-06-21T12:01:28.076Z,39.55
2018-06-21T12:02:28.080Z,39.26
2018-06-21T12:03:28.164Z,39.36
2018-06-21T12:04:28.099Z,39.55
2018-06-21T12:05:28.116Z,40.03
2018-06-21T12:06:28.121Z,37.99
2018-06-21T12:07:28.135Z,36.80
2018-06-21T12:08:28.144Z,36.02
2018-06-21T12:09:28.155Z,35.93
2018-06-21T12:10:28.168Z,36.32
2018-06-21T12:11:28.181Z,36.51
2018-06-21T12:12:28.188Z,37.10
2018-06-21T12:13:28.197Z,37.19
2018-06-21T12:14:28.213Z,35.93
2018-06-21T12:15:28.223Z,34.74
2018-06-21T12:16:28.230Z,34.94
2018-06-21T12:17:28.242Z,34.84
2018-06-21T12:18:28.250Z,34.25
2018-06-21T12:19:28.262Z,33.58
2018-06-21T12:20:28.274Z,34.17
2018-06-21T12:21:28.282Z,33.88
2018-06-21T12:22:28.301Z,34.27
2018-06-21T12:23:28.306Z,35.05
2018-06-21T12:24:28.315Z,36.88
2018-06-21T12:25:28.326Z,37.85
2018-06-21T12:26:28.375Z,38.81
2018-06-21T12:27:28.345Z,38.93
2018-06-21T12:28:28.360Z,39.22
2018-06-21T12:29:28.366Z,40.68
2018-06-21T12:30:28.373Z,42.31
2018-06-21T12:31:28.382Z,44.12
2018-06-21T12:32:28.442Z,45.53
2018-06-21T12:33:28.407Z,47.55
2018-06-21T12:34:28.417Z,48.69
2018-06-21T12:35:28.427Z,49.56
2018-06-21T12:36:28.443Z,50.02
2018-06-21T12:37:28.449Z,50.79
2018-06-21T12:38:28.461Z,50.96
2018-06-21T12:39:28.469Z,51.64
2018-06-21T12:40:28.480Z,52.17
2018-06-21T12:41:28.486Z,53.99
2018-06-21T12:42:28.499Z,53.77
2018-06-21T12:43:28.540Z,54.35
2018-06-21T12:44:28.512Z,56.35
2018-06-21T12:45:28.527Z,56.54
2018-06-21T12:46:28.538Z,56.73
2018-06-21T12:47:28.546Z,56.35
2018-06-21T12:48:28.552Z,56.05
2018-06-21T12:49:28.562Z,56.25
2018-06-21T12:50:28.570Z,56.15
2018-06-21T12:51:28.581Z,56.73
2018-06-21T12:52:28.642Z,56.93